sensor_id;sensor_type;location;lat;lon;timestamp;P1;durP1;ratioP1;P2;durP2;ratioP2
6282;SDS011;3174;53.486;9.568;2023-03-01T00:01:39;3.37;;;2.23;;
6282;SDS011;3174;53.486;9.568;2023-03-01T00:04:07;5.77;;;2.27;;
6282;SDS011;3174;53.486;9.568;2023-03-01T00:06:37;3.97;;;2.37;;
6282;SDS011;3174;53.486;9.568;2023-03-01T00:09:05;5.67;;;1.93;;
6282;SDS011;3174;53.486;9.568;2023-03-01T00:11:33;3.73;;;2.47;;
6282;SDS011;3174;53.486;9.568;2023-03-01T00:14:01;3.80;;;2.00;;
6282;SDS011;3174;53.486;9.568;2023-03-01T00:16:32;2.70;;;1.80;;
6282;SDS011;3174;53.486;9.568;2023-03-01T00:19:02;4.03;;;2.03;;
6282;SDS011;3174;53.486;9.568;2023-03-01T00:21:30;3.30;;;2.13;;
6282;SDS011;3174;53.486;9.568;2023-03-01T00:23:59;4.13;;;2.43;;
6282;SDS011;3174;53.486;9.568;2023-03-01T00:26:27;4.30;;;2.00;;
6282;SDS011;3174;53.486;9.568;2023-03-01T00:28:56;2.43;;;1.73;;
6282;SDS011;3174;53.486;9.568;2023-03-01T00:31:25;3.87;;;2.03;;
6282;SDS011;3174;53.486;9.568;2023-03-01T00:33:55;4.80;;;2.17;;
6282;SDS011;3174;53.486;9.568;2023-03-01T00:36:24;4.43;;;2.40;;
6282;SDS011;3174;53.486;9.568;2023-03-01T00:38:54;4.20;;;2.60;;
6282;SDS011;3174;53.486;9.568;2023-03-01T00:41:24;3.83;;;2.10;;
6282;SDS011;3174;53.486;9.568;2023-03-01T00:43:53;3.50;;;2.13;;
6282;SDS011;3174;53.486;9.568;2023-03-01T00:46:23;4.73;;;2.70;;
6282;SDS011;3174;53.486;9.568;2023-03-01T00:48:53;4.87;;;2.60;;
6282;SDS011;3174;53.486;9.568;2023-03-01T00:51:22;3.47;;;2.10;;
6282;SDS011;3174;53.486;9.568;2023-03-01T00:53:51;3.90;;;2.57;;
6282;SDS011;3174;53.486;9.568;2023-03-01T00:56:19;2.50;;;1.90;;
6282;SDS011;3174;53.486;9.568;2023-03-01T00:58:49;3.17;;;2.00;;
6282;SDS011;3174;53.486;9.568;2023-03-01T01:01:18;2.97;;;2.10;;
6282;SDS011;3174;53.486;9.568;2023-03-01T01:03:48;4.03;;;1.90;;
6282;SDS011;3174;53.486;9.568;2023-03-01T01:06:17;3.33;;;2.13;;
6282;SDS011;3174;53.486;9.568;2023-03-01T01:08:46;3.77;;;2.23;;
6282;SDS011;3174;53.486;9.568;2023-03-01T01:11:15;4.07;;;2.37;;
6282;SDS011;3174;53.486;9.568;2023-03-01T01:13:43;3.40;;;1.87;;
6282;SDS011;3174;53.486;9.568;2023-03-01T01:16:13;3.63;;;2.07;;
6282;SDS011;3174;53.486;9.568;2023-03-01T01:18:41;3.83;;;1.90;;
6282;SDS011;3174;53.486;9.568;2023-03-01T01:21:10;5.30;;;2.03;;
6282;SDS011;3174;53.486;9.568;2023-03-01T01:23:39;4.73;;;1.73;;
6282;SDS011;3174;53.486;9.568;2023-03-01T01:26:09;2.37;;;1.77;;
6282;SDS011;3174;53.486;9.568;2023-03-01T01:28:38;2.57;;;1.90;;
6282;SDS011;3174;53.486;9.568;2023-03-01T01:31:06;4.07;;;2.20;;
6282;SDS011;3174;53.486;9.568;2023-03-01T01:33:36;4.13;;;2.37;;
6282;SDS011;3174;53.486;9.568;2023-03-01T01:36:04;3.97;;;2.30;;
6282;SDS011;3174;53.486;9.568;2023-03-01T01:38:34;3.10;;;2.10;;
6282;SDS011;3174;53.486;9.568;2023-03-01T01:41:02;5.17;;;2.40;;
6282;SDS011;3174;53.486;9.568;2023-03-01T01:43:33;3.10;;;2.00;;
6282;SDS011;3174;53.486;9.568;2023-03-01T01:46:03;5.03;;;2.30;;
6282;SDS011;3174;53.486;9.568;2023-03-01T01:48:34;3.37;;;2.27;;
6282;SDS011;3174;53.486;9.568;2023-03-01T01:51:09;4.13;;;2.23;;
6282;SDS011;3174;53.486;9.568;2023-03-01T01:53:41;2.67;;;1.97;;
6282;SDS011;3174;53.486;9.568;2023-03-01T01:56:11;2.57;;;1.90;;
6282;SDS011;3174;53.486;9.568;2023-03-01T01:58:40;3.03;;;2.37;;
6282;SDS011;3174;53.486;9.568;2023-03-01T02:01:09;3.00;;;2.27;;
6282;SDS011;3174;53.486;9.568;2023-03-01T02:03:39;4.43;;;2.33;;
6282;SDS011;3174;53.486;9.568;2023-03-01T02:06:12;3.53;;;2.37;;
6282;SDS011;3174;53.486;9.568;2023-03-01T02:08:43;2.97;;;1.97;;
6282;SDS011;3174;53.486;9.568;2023-03-01T02:11:12;7.07;;;2.10;;
6282;SDS011;3174;53.486;9.568;2023-03-01T02:13:41;5.23;;;1.77;;
6282;SDS011;3174;53.486;9.568;2023-03-01T02:16:10;3.77;;;1.87;;
6282;SDS011;3174;53.486;9.568;2023-03-01T02:18:41;3.00;;;2.00;;
6282;SDS011;3174;53.486;9.568;2023-03-01T02:21:13;3.77;;;1.80;;
6282;SDS011;3174;53.486;9.568;2023-03-01T02:23:48;3.47;;;1.90;;
6282;SDS011;3174;53.486;9.568;2023-03-01T02:26:18;4.10;;;1.90;;
6282;SDS011;3174;53.486;9.568;2023-03-01T02:28:50;2.03;;;1.57;;
6282;SDS011;3174;53.486;9.568;2023-03-01T02:31:18;2.83;;;1.70;;
6282;SDS011;3174;53.486;9.568;2023-03-01T02:34:05;4.43;;;1.50;;
6282;SDS011;3174;53.486;9.568;2023-03-01T02:36:35;3.43;;;1.80;;
6282;SDS011;3174;53.486;9.568;2023-03-01T02:39:05;3.27;;;2.00;;
6282;SDS011;3174;53.486;9.568;2023-03-01T02:41:41;2.20;;;1.90;;
6282;SDS011;3174;53.486;9.568;2023-03-01T02:44:12;3.13;;;1.90;;
6282;SDS011;3174;53.486;9.568;2023-03-01T02:46:43;3.17;;;1.80;;
6282;SDS011;3174;53.486;9.568;2023-03-01T02:49:22;3.50;;;2.10;;
6282;SDS011;3174;53.486;9.568;2023-03-01T02:51:54;2.73;;;1.80;;
6282;SDS011;3174;53.486;9.568;2023-03-01T02:54:42;2.40;;;1.77;;
6282;SDS011;3174;53.486;9.568;2023-03-01T02:57:12;3.90;;;1.93;;
6282;SDS011;3174;53.486;9.568;2023-03-01T02:59:41;2.80;;;1.50;;
6282;SDS011;3174;53.486;9.568;2023-03-01T03:02:18;2.30;;;1.77;;
6282;SDS011;3174;53.486;9.568;2023-03-01T03:05:06;2.60;;;1.60;;
6282;SDS011;3174;53.486;9.568;2023-03-01T03:07:36;4.93;;;1.90;;
6282;SDS011;3174;53.486;9.568;2023-03-01T03:10:06;2.97;;;1.93;;
6282;SDS011;3174;53.486;9.568;2023-03-01T03:12:37;4.57;;;1.87;;
6282;SDS011;3174;53.486;9.568;2023-03-01T03:15:07;3.73;;;1.80;;
6282;SDS011;3174;53.486;9.568;2023-03-01T03:17:39;5.13;;;2.10;;
6282;SDS011;3174;53.486;9.568;2023-03-01T03:20:11;3.97;;;1.83;;
6282;SDS011;3174;53.486;9.568;2023-03-01T03:22:45;3.93;;;1.80;;
6282;SDS011;3174;53.486;9.568;2023-03-01T03:25:14;4.83;;;1.93;;
6282;SDS011;3174;53.486;9.568;2023-03-01T03:27:42;2.00;;;1.60;;
6282;SDS011;3174;53.486;9.568;2023-03-01T03:30:14;2.60;;;1.60;;
6282;SDS011;3174;53.486;9.568;2023-03-01T03:32:43;3.83;;;2.00;;
6282;SDS011;3174;53.486;9.568;2023-03-01T03:35:18;2.23;;;1.67;;
6282;SDS011;3174;53.486;9.568;2023-03-01T03:37:47;3.57;;;2.23;;
6282;SDS011;3174;53.486;9.568;2023-03-01T03:40:30;3.67;;;1.80;;
6282;SDS011;3174;53.486;9.568;2023-03-01T03:43:00;3.93;;;2.33;;
6282;SDS011;3174;53.486;9.568;2023-03-01T03:45:30;3.83;;;2.07;;
6282;SDS011;3174;53.486;9.568;2023-03-01T03:47:59;3.33;;;1.67;;
6282;SDS011;3174;53.486;9.568;2023-03-01T03:50:28;3.57;;;1.87;;
6282;SDS011;3174;53.486;9.568;2023-03-01T03:52:56;3.90;;;2.30;;
6282;SDS011;3174;53.486;9.568;2023-03-01T03:55:24;6.27;;;2.27;;
6282;SDS011;3174;53.486;9.568;2023-03-01T03:57:57;3.43;;;2.00;;
6282;SDS011;3174;53.486;9.568;2023-03-01T04:00:29;3.33;;;1.97;;
6282;SDS011;3174;53.486;9.568;2023-03-01T04:02:57;2.77;;;2.20;;
6282;SDS011;3174;53.486;9.568;2023-03-01T04:05:26;4.23;;;2.10;;
6282;SDS011;3174;53.486;9.568;2023-03-01T04:07:54;2.07;;;1.60;;
6282;SDS011;3174;53.486;9.568;2023-03-01T04:10:34;3.90;;;2.20;;
6282;SDS011;3174;53.486;9.568;2023-03-01T04:13:03;3.27;;;2.23;;
6282;SDS011;3174;53.486;9.568;2023-03-01T04:15:33;3.87;;;2.03;;
6282;SDS011;3174;53.486;9.568;2023-03-01T04:18:01;2.97;;;2.07;;
6282;SDS011;3174;53.486;9.568;2023-03-01T04:20:31;4.20;;;2.23;;
6282;SDS011;3174;53.486;9.568;2023-03-01T04:23:01;2.67;;;1.80;;
6282;SDS011;3174;53.486;9.568;2023-03-01T04:25:37;2.33;;;1.67;;
6282;SDS011;3174;53.486;9.568;2023-03-01T04:28:06;2.60;;;1.70;;
6282;SDS011;3174;53.486;9.568;2023-03-01T04:30:36;3.57;;;1.93;;
6282;SDS011;3174;53.486;9.568;2023-03-01T04:33:05;4.33;;;1.87;;
6282;SDS011;3174;53.486;9.568;2023-03-01T04:35:34;4.13;;;1.80;;
6282;SDS011;3174;53.486;9.568;2023-03-01T04:38:03;2.60;;;1.70;;
6282;SDS011;3174;53.486;9.568;2023-03-01T04:40:32;2.73;;;1.80;;
6282;SDS011;3174;53.486;9.568;2023-03-01T04:43:00;3.00;;;2.03;;
6282;SDS011;3174;53.486;9.568;2023-03-01T04:45:29;2.93;;;1.77;;
6282;SDS011;3174;53.486;9.568;2023-03-01T04:47:58;3.97;;;2.03;;
6282;SDS011;3174;53.486;9.568;2023-03-01T04:50:26;3.53;;;2.17;;
6282;SDS011;3174;53.486;9.568;2023-03-01T04:52:54;2.70;;;2.00;;
6282;SDS011;3174;53.486;9.568;2023-03-01T04:55:25;3.53;;;1.77;;
6282;SDS011;3174;53.486;9.568;2023-03-01T04:57:53;3.23;;;1.97;;
6282;SDS011;3174;53.486;9.568;2023-03-01T05:00:22;3.03;;;1.80;;
6282;SDS011;3174;53.486;9.568;2023-03-01T05:02:51;3.80;;;1.87;;
6282;SDS011;3174;53.486;9.568;2023-03-01T05:05:25;2.70;;;1.60;;
6282;SDS011;3174;53.486;9.568;2023-03-01T05:07:55;3.40;;;1.60;;
6282;SDS011;3174;53.486;9.568;2023-03-01T05:10:24;2.63;;;1.90;;
6282;SDS011;3174;53.486;9.568;2023-03-01T05:12:52;2.70;;;1.70;;
6282;SDS011;3174;53.486;9.568;2023-03-01T05:15:20;1.40;;;1.30;;
6282;SDS011;3174;53.486;9.568;2023-03-01T05:17:52;3.83;;;2.10;;
6282;SDS011;3174;53.486;9.568;2023-03-01T05:20:20;2.87;;;1.87;;
6282;SDS011;3174;53.486;9.568;2023-03-01T05:22:51;3.87;;;1.80;;
6282;SDS011;3174;53.486;9.568;2023-03-01T05:25:22;3.37;;;2.03;;
6282;SDS011;3174;53.486;9.568;2023-03-01T05:27:50;4.33;;;1.97;;
6282;SDS011;3174;53.486;9.568;2023-03-01T05:30:18;2.87;;;1.70;;
6282;SDS011;3174;53.486;9.568;2023-03-01T05:32:48;3.47;;;1.70;;
6282;SDS011;3174;53.486;9.568;2023-03-01T05:35:22;5.77;;;1.73;;
6282;SDS011;3174;53.486;9.568;2023-03-01T05:37:52;3.47;;;2.10;;
6282;SDS011;3174;53.486;9.568;2023-03-01T05:40:20;3.40;;;1.93;;
6282;SDS011;3174;53.486;9.568;2023-03-01T05:42:51;5.07;;;1.70;;
6282;SDS011;3174;53.486;9.568;2023-03-01T05:45:20;2.30;;;1.93;;
6282;SDS011;3174;53.486;9.568;2023-03-01T05:47:50;2.93;;;1.90;;
6282;SDS011;3174;53.486;9.568;2023-03-01T05:50:18;4.27;;;2.20;;
6282;SDS011;3174;53.486;9.568;2023-03-01T05:52:48;2.03;;;1.60;;
6282;SDS011;3174;53.486;9.568;2023-03-01T05:55:20;2.60;;;1.40;;
6282;SDS011;3174;53.486;9.568;2023-03-01T05:57:48;4.13;;;2.33;;
6282;SDS011;3174;53.486;9.568;2023-03-01T06:00:18;4.00;;;2.20;;
6282;SDS011;3174;53.486;9.568;2023-03-01T06:02:48;2.53;;;1.60;;
6282;SDS011;3174;53.486;9.568;2023-03-01T06:05:16;4.53;;;2.53;;
6282;SDS011;3174;53.486;9.568;2023-03-01T06:07:47;1.70;;;1.60;;
6282;SDS011;3174;53.486;9.568;2023-03-01T06:10:16;1.87;;;1.67;;
6282;SDS011;3174;53.486;9.568;2023-03-01T06:12:47;2.13;;;1.80;;
6282;SDS011;3174;53.486;9.568;2023-03-01T06:15:15;3.57;;;2.60;;
6282;SDS011;3174;53.486;9.568;2023-03-01T06:17:46;2.87;;;1.90;;
6282;SDS011;3174;53.486;9.568;2023-03-01T06:20:15;40.97;;;21.37;;
6282;SDS011;3174;53.486;9.568;2023-03-01T06:22:47;5.80;;;3.40;;
6282;SDS011;3174;53.486;9.568;2023-03-01T06:25:17;4.50;;;2.73;;
6282;SDS011;3174;53.486;9.568;2023-03-01T06:27:48;4.53;;;2.47;;
6282;SDS011;3174;53.486;9.568;2023-03-01T06:30:17;5.97;;;3.50;;
6282;SDS011;3174;53.486;9.568;2023-03-01T06:32:46;2.70;;;2.30;;
6282;SDS011;3174;53.486;9.568;2023-03-01T06:35:14;8.87;;;3.63;;
6282;SDS011;3174;53.486;9.568;2023-03-01T06:37:44;5.23;;;3.00;;
6282;SDS011;3174;53.486;9.568;2023-03-01T06:40:13;6.37;;;3.10;;
6282;SDS011;3174;53.486;9.568;2023-03-01T06:42:42;11.77;;;3.80;;
6282;SDS011;3174;53.486;9.568;2023-03-01T06:45:13;7.80;;;3.10;;
6282;SDS011;3174;53.486;9.568;2023-03-01T06:47:40;3.80;;;2.70;;
6282;SDS011;3174;53.486;9.568;2023-03-01T06:50:09;4.67;;;2.70;;
6282;SDS011;3174;53.486;9.568;2023-03-01T06:52:37;6.03;;;2.43;;
6282;SDS011;3174;53.486;9.568;2023-03-01T06:55:06;19.03;;;8.23;;
6282;SDS011;3174;53.486;9.568;2023-03-01T06:57:34;5.90;;;2.97;;
6282;SDS011;3174;53.486;9.568;2023-03-01T07:00:02;6.47;;;4.63;;
6282;SDS011;3174;53.486;9.568;2023-03-01T07:02:32;3.93;;;2.43;;
6282;SDS011;3174;53.486;9.568;2023-03-01T07:05:03;3.83;;;2.60;;
6282;SDS011;3174;53.486;9.568;2023-03-01T07:07:31;4.77;;;3.27;;
6282;SDS011;3174;53.486;9.568;2023-03-01T07:09:59;4.87;;;3.03;;
6282;SDS011;3174;53.486;9.568;2023-03-01T07:12:27;5.00;;;2.70;;
6282;SDS011;3174;53.486;9.568;2023-03-01T07:14:55;3.90;;;2.77;;
6282;SDS011;3174;53.486;9.568;2023-03-01T07:17:23;4.37;;;3.30;;
6282;SDS011;3174;53.486;9.568;2023-03-01T07:19:52;3.97;;;3.17;;
6282;SDS011;3174;53.486;9.568;2023-03-01T07:22:20;6.60;;;3.03;;
6282;SDS011;3174;53.486;9.568;2023-03-01T07:24:48;5.07;;;2.67;;
6282;SDS011;3174;53.486;9.568;2023-03-01T07:27:16;4.03;;;2.93;;
6282;SDS011;3174;53.486;9.568;2023-03-01T07:29:44;5.93;;;2.90;;
6282;SDS011;3174;53.486;9.568;2023-03-01T07:32:12;3.70;;;2.90;;
6282;SDS011;3174;53.486;9.568;2023-03-01T07:34:41;3.77;;;3.17;;
6282;SDS011;3174;53.486;9.568;2023-03-01T07:37:10;3.73;;;2.50;;
6282;SDS011;3174;53.486;9.568;2023-03-01T07:39:40;3.33;;;2.53;;
6282;SDS011;3174;53.486;9.568;2023-03-01T07:42:08;3.30;;;2.20;;
6282;SDS011;3174;53.486;9.568;2023-03-01T07:44:36;8.03;;;4.60;;
6282;SDS011;3174;53.486;9.568;2023-03-01T07:47:04;4.73;;;3.00;;
6282;SDS011;3174;53.486;9.568;2023-03-01T07:49:32;4.37;;;2.53;;
6282;SDS011;3174;53.486;9.568;2023-03-01T07:52:00;5.57;;;3.00;;
6282;SDS011;3174;53.486;9.568;2023-03-01T07:54:29;5.53;;;3.20;;
6282;SDS011;3174;53.486;9.568;2023-03-01T07:56:57;4.93;;;3.07;;
6282;SDS011;3174;53.486;9.568;2023-03-01T07:59:25;4.50;;;3.17;;
6282;SDS011;3174;53.486;9.568;2023-03-01T08:01:55;6.80;;;3.87;;
6282;SDS011;3174;53.486;9.568;2023-03-01T08:04:23;4.10;;;3.07;;
6282;SDS011;3174;53.486;9.568;2023-03-01T08:06:53;2.93;;;2.67;;
6282;SDS011;3174;53.486;9.568;2023-03-01T08:09:21;5.10;;;3.37;;
6282;SDS011;3174;53.486;9.568;2023-03-01T08:11:51;4.87;;;3.00;;
6282;SDS011;3174;53.486;9.568;2023-03-01T08:14:20;3.33;;;2.63;;
6282;SDS011;3174;53.486;9.568;2023-03-01T08:16:49;5.60;;;3.20;;
6282;SDS011;3174;53.486;9.568;2023-03-01T08:19:17;4.10;;;3.00;;
6282;SDS011;3174;53.486;9.568;2023-03-01T08:21:45;3.90;;;2.60;;
6282;SDS011;3174;53.486;9.568;2023-03-01T08:24:13;7.90;;;3.07;;
6282;SDS011;3174;53.486;9.568;2023-03-01T08:26:41;4.83;;;2.97;;
6282;SDS011;3174;53.486;9.568;2023-03-01T08:29:11;4.50;;;3.00;;
6282;SDS011;3174;53.486;9.568;2023-03-01T08:31:39;12.40;;;5.80;;
6282;SDS011;3174;53.486;9.568;2023-03-01T08:34:09;7.53;;;3.17;;
6282;SDS011;3174;53.486;9.568;2023-03-01T08:36:41;6.43;;;3.27;;
6282;SDS011;3174;53.486;9.568;2023-03-01T08:39:11;4.90;;;3.20;;
6282;SDS011;3174;53.486;9.568;2023-03-01T08:41:39;6.23;;;3.00;;
6282;SDS011;3174;53.486;9.568;2023-03-01T08:44:09;7.13;;;3.37;;
6282;SDS011;3174;53.486;9.568;2023-03-01T08:46:41;5.40;;;3.40;;
6282;SDS011;3174;53.486;9.568;2023-03-01T08:49:13;6.23;;;3.40;;
6282;SDS011;3174;53.486;9.568;2023-03-01T08:51:42;4.40;;;3.17;;
6282;SDS011;3174;53.486;9.568;2023-03-01T08:54:11;4.53;;;3.30;;
6282;SDS011;3174;53.486;9.568;2023-03-01T08:56:41;4.57;;;3.20;;
6282;SDS011;3174;53.486;9.568;2023-03-01T08:59:11;5.57;;;3.67;;
6282;SDS011;3174;53.486;9.568;2023-03-01T09:01:39;4.97;;;3.53;;
6282;SDS011;3174;53.486;9.568;2023-03-01T09:04:09;5.03;;;3.37;;
6282;SDS011;3174;53.486;9.568;2023-03-01T09:06:37;6.93;;;3.47;;
6282;SDS011;3174;53.486;9.568;2023-03-01T09:09:06;5.23;;;2.90;;
6282;SDS011;3174;53.486;9.568;2023-03-01T09:11:35;7.20;;;3.23;;
6282;SDS011;3174;53.486;9.568;2023-03-01T09:14:05;11.43;;;3.70;;
6282;SDS011;3174;53.486;9.568;2023-03-01T09:16:34;6.83;;;3.43;;
6282;SDS011;3174;53.486;9.568;2023-03-01T09:19:02;5.57;;;3.90;;
6282;SDS011;3174;53.486;9.568;2023-03-01T09:21:31;4.97;;;3.40;;
6282;SDS011;3174;53.486;9.568;2023-03-01T09:24:06;5.30;;;3.23;;
6282;SDS011;3174;53.486;9.568;2023-03-01T09:26:35;5.53;;;3.87;;
6282;SDS011;3174;53.486;9.568;2023-03-01T09:29:03;7.40;;;4.17;;
6282;SDS011;3174;53.486;9.568;2023-03-01T09:31:31;5.53;;;3.80;;
6282;SDS011;3174;53.486;9.568;2023-03-01T09:34:01;5.23;;;3.50;;
6282;SDS011;3174;53.486;9.568;2023-03-01T09:36:29;4.43;;;3.37;;
6282;SDS011;3174;53.486;9.568;2023-03-01T09:38:57;7.90;;;4.73;;
6282;SDS011;3174;53.486;9.568;2023-03-01T09:41:31;8.97;;;4.70;;
6282;SDS011;3174;53.486;9.568;2023-03-01T09:44:10;5.63;;;3.60;;
6282;SDS011;3174;53.486;9.568;2023-03-01T09:46:44;7.43;;;4.10;;
6282;SDS011;3174;53.486;9.568;2023-03-01T09:49:15;9.97;;;4.73;;
6282;SDS011;3174;53.486;9.568;2023-03-01T09:51:48;6.53;;;3.27;;
6282;SDS011;3174;53.486;9.568;2023-03-01T09:54:22;10.23;;;4.80;;
6282;SDS011;3174;53.486;9.568;2023-03-01T09:56:57;8.07;;;4.50;;
6282;SDS011;3174;53.486;9.568;2023-03-01T09:59:32;6.87;;;3.90;;
6282;SDS011;3174;53.486;9.568;2023-03-01T10:02:12;6.83;;;4.10;;
6282;SDS011;3174;53.486;9.568;2023-03-01T10:04:49;6.53;;;4.33;;
6282;SDS011;3174;53.486;9.568;2023-03-01T10:07:25;6.53;;;3.97;;
6282;SDS011;3174;53.486;9.568;2023-03-01T10:09:56;5.13;;;3.80;;
6282;SDS011;3174;53.486;9.568;2023-03-01T10:12:27;7.73;;;3.87;;
6282;SDS011;3174;53.486;9.568;2023-03-01T10:15:02;5.47;;;2.97;;
6282;SDS011;3174;53.486;9.568;2023-03-01T10:17:34;6.33;;;3.70;;
6282;SDS011;3174;53.486;9.568;2023-03-01T10:20:13;6.03;;;3.90;;
6282;SDS011;3174;53.486;9.568;2023-03-01T10:22:43;8.37;;;4.00;;
6282;SDS011;3174;53.486;9.568;2023-03-01T10:25:20;5.93;;;3.83;;
6282;SDS011;3174;53.486;9.568;2023-03-01T10:27:59;7.43;;;3.70;;
6282;SDS011;3174;53.486;9.568;2023-03-01T10:30:32;5.80;;;3.47;;
6282;SDS011;3174;53.486;9.568;2023-03-01T10:33:02;6.33;;;3.70;;
6282;SDS011;3174;53.486;9.568;2023-03-01T10:35:33;6.73;;;3.83;;
6282;SDS011;3174;53.486;9.568;2023-03-01T10:38:03;5.97;;;3.57;;
6282;SDS011;3174;53.486;9.568;2023-03-01T10:40:33;9.00;;;3.77;;
6282;SDS011;3174;53.486;9.568;2023-03-01T10:43:02;7.87;;;4.07;;
6282;SDS011;3174;53.486;9.568;2023-03-01T10:45:33;5.80;;;3.47;;
6282;SDS011;3174;53.486;9.568;2023-03-01T10:48:04;5.90;;;3.53;;
6282;SDS011;3174;53.486;9.568;2023-03-01T10:50:37;6.90;;;3.70;;
6282;SDS011;3174;53.486;9.568;2023-03-01T10:53:19;6.77;;;3.77;;
6282;SDS011;3174;53.486;9.568;2023-03-01T10:55:56;6.73;;;3.57;;
6282;SDS011;3174;53.486;9.568;2023-03-01T10:58:25;5.97;;;3.50;;
6282;SDS011;3174;53.486;9.568;2023-03-01T11:00:54;6.23;;;4.10;;
6282;SDS011;3174;53.486;9.568;2023-03-01T11:03:23;6.30;;;3.63;;
6282;SDS011;3174;53.486;9.568;2023-03-01T11:05:58;5.37;;;3.17;;
6282;SDS011;3174;53.486;9.568;2023-03-01T11:08:38;6.80;;;3.70;;
6282;SDS011;3174;53.486;9.568;2023-03-01T11:14:01;5.97;;;3.10;;
6282;SDS011;3174;53.486;9.568;2023-03-01T11:16:58;6.23;;;3.53;;
6282;SDS011;3174;53.486;9.568;2023-03-01T11:19:26;6.30;;;3.67;;
6282;SDS011;3174;53.486;9.568;2023-03-01T11:21:58;6.23;;;3.53;;
6282;SDS011;3174;53.486;9.568;2023-03-01T11:24:34;6.67;;;3.40;;
6282;SDS011;3174;53.486;9.568;2023-03-01T11:27:11;6.17;;;3.67;;
6282;SDS011;3174;53.486;9.568;2023-03-01T11:29:44;6.27;;;3.73;;
6282;SDS011;3174;53.486;9.568;2023-03-01T11:32:14;4.27;;;3.07;;
6282;SDS011;3174;53.486;9.568;2023-03-01T11:34:43;5.13;;;3.37;;
6282;SDS011;3174;53.486;9.568;2023-03-01T11:37:19;6.87;;;4.20;;
6282;SDS011;3174;53.486;9.568;2023-03-01T11:39:53;4.47;;;3.37;;
6282;SDS011;3174;53.486;9.568;2023-03-01T11:42:28;6.47;;;3.33;;
6282;SDS011;3174;53.486;9.568;2023-03-01T11:45:05;7.10;;;3.93;;
6282;SDS011;3174;53.486;9.568;2023-03-01T11:47:43;5.87;;;3.67;;
6282;SDS011;3174;53.486;9.568;2023-03-01T11:50:20;6.30;;;3.30;;
6282;SDS011;3174;53.486;9.568;2023-03-01T11:52:58;7.93;;;4.10;;
6282;SDS011;3174;53.486;9.568;2023-03-01T11:55:39;6.10;;;3.47;;
6282;SDS011;3174;53.486;9.568;2023-03-01T11:58:23;7.70;;;3.77;;
6282;SDS011;3174;53.486;9.568;2023-03-01T12:01:06;6.97;;;4.07;;
6282;SDS011;3174;53.486;9.568;2023-03-01T12:03:46;7.20;;;3.47;;
6282;SDS011;3174;53.486;9.568;2023-03-01T12:06:24;8.73;;;3.97;;
6282;SDS011;3174;53.486;9.568;2023-03-01T12:09:01;9.33;;;4.20;;
6282;SDS011;3174;53.486;9.568;2023-03-01T12:11:40;7.93;;;4.73;;
6282;SDS011;3174;53.486;9.568;2023-03-01T12:14:27;7.07;;;4.00;;
6282;SDS011;3174;53.486;9.568;2023-03-01T12:17:10;8.13;;;3.77;;
6282;SDS011;3174;53.486;9.568;2023-03-01T12:19:50;6.87;;;3.77;;
6282;SDS011;3174;53.486;9.568;2023-03-01T12:22:29;7.97;;;4.00;;
6282;SDS011;3174;53.486;9.568;2023-03-01T12:28:03;7.50;;;3.90;;
6282;SDS011;3174;53.486;9.568;2023-03-01T12:30:43;8.80;;;4.33;;
6282;SDS011;3174;53.486;9.568;2023-03-01T12:33:22;13.63;;;5.57;;
6282;SDS011;3174;53.486;9.568;2023-03-01T12:39:08;10.07;;;4.73;;
6282;SDS011;3174;53.486;9.568;2023-03-01T12:41:54;13.50;;;5.57;;
6282;SDS011;3174;53.486;9.568;2023-03-01T12:47:50;9.30;;;4.40;;
6282;SDS011;3174;53.486;9.568;2023-03-01T12:50:28;11.60;;;4.83;;
6282;SDS011;3174;53.486;9.568;2023-03-01T12:53:00;12.13;;;5.27;;
6282;SDS011;3174;53.486;9.568;2023-03-01T12:55:48;10.83;;;5.27;;
6282;SDS011;3174;53.486;9.568;2023-03-01T12:58:20;11.40;;;5.60;;
6282;SDS011;3174;53.486;9.568;2023-03-01T13:01:08;10.37;;;5.23;;
6282;SDS011;3174;53.486;9.568;2023-03-01T13:03:52;11.70;;;4.70;;
6282;SDS011;3174;53.486;9.568;2023-03-01T13:06:29;10.33;;;5.60;;
6282;SDS011;3174;53.486;9.568;2023-03-01T13:09:11;10.17;;;5.63;;
6282;SDS011;3174;53.486;9.568;2023-03-01T13:11:42;12.97;;;6.20;;
6282;SDS011;3174;53.486;9.568;2023-03-01T13:17:07;18.23;;;8.77;;
6282;SDS011;3174;53.486;9.568;2023-03-01T13:19:59;16.17;;;7.27;;
6282;SDS011;3174;53.486;9.568;2023-03-01T13:22:29;14.43;;;7.40;;
6282;SDS011;3174;53.486;9.568;2023-03-01T13:25:02;15.47;;;7.53;;
6282;SDS011;3174;53.486;9.568;2023-03-01T13:27:43;16.97;;;8.03;;
6282;SDS011;3174;53.486;9.568;2023-03-01T13:36:08;20.67;;;9.53;;
6282;SDS011;3174;53.486;9.568;2023-03-01T13:38:47;20.30;;;9.30;;
6282;SDS011;3174;53.486;9.568;2023-03-01T13:41:16;21.03;;;9.50;;
6282;SDS011;3174;53.486;9.568;2023-03-01T13:43:45;22.63;;;10.07;;
6282;SDS011;3174;53.486;9.568;2023-03-01T13:46:17;22.77;;;10.43;;
6282;SDS011;3174;53.486;9.568;2023-03-01T13:48:49;23.73;;;9.73;;
6282;SDS011;3174;53.486;9.568;2023-03-01T13:51:20;22.93;;;10.03;;
6282;SDS011;3174;53.486;9.568;2023-03-01T13:53:51;25.10;;;11.30;;
6282;SDS011;3174;53.486;9.568;2023-03-01T13:56:21;22.47;;;9.47;;
6282;SDS011;3174;53.486;9.568;2023-03-01T13:58:53;22.37;;;10.13;;
6282;SDS011;3174;53.486;9.568;2023-03-01T14:01:27;20.87;;;10.30;;
6282;SDS011;3174;53.486;9.568;2023-03-01T14:03:57;26.23;;;10.40;;
6282;SDS011;3174;53.486;9.568;2023-03-01T14:06:26;22.07;;;9.87;;
6282;SDS011;3174;53.486;9.568;2023-03-01T14:09:04;19.23;;;9.47;;
6282;SDS011;3174;53.486;9.568;2023-03-01T14:20:20;20.57;;;8.83;;
6282;SDS011;3174;53.486;9.568;2023-03-01T14:22:51;16.60;;;8.73;;
6282;SDS011;3174;53.486;9.568;2023-03-01T14:25:21;17.07;;;8.67;;
6282;SDS011;3174;53.486;9.568;2023-03-01T14:27:52;17.30;;;8.53;;
6282;SDS011;3174;53.486;9.568;2023-03-01T14:30:23;17.90;;;8.30;;
6282;SDS011;3174;53.486;9.568;2023-03-01T14:32:53;16.07;;;7.43;;
6282;SDS011;3174;53.486;9.568;2023-03-01T14:35:25;15.47;;;7.63;;
6282;SDS011;3174;53.486;9.568;2023-03-01T14:37:54;15.40;;;7.60;;
6282;SDS011;3174;53.486;9.568;2023-03-01T14:40:23;15.57;;;7.30;;
6282;SDS011;3174;53.486;9.568;2023-03-01T14:42:53;16.53;;;7.17;;
6282;SDS011;3174;53.486;9.568;2023-03-01T14:45:23;13.97;;;6.73;;
6282;SDS011;3174;53.486;9.568;2023-03-01T14:47:52;13.93;;;6.67;;
6282;SDS011;3174;53.486;9.568;2023-03-01T14:50:22;12.83;;;6.47;;
6282;SDS011;3174;53.486;9.568;2023-03-01T14:52:53;15.47;;;6.97;;
6282;SDS011;3174;53.486;9.568;2023-03-01T14:55:25;16.67;;;6.70;;
6282;SDS011;3174;53.486;9.568;2023-03-01T14:57:54;12.87;;;5.97;;
6282;SDS011;3174;53.486;9.568;2023-03-01T15:00:29;11.63;;;6.13;;
6282;SDS011;3174;53.486;9.568;2023-03-01T15:02:58;13.87;;;6.30;;
6282;SDS011;3174;53.486;9.568;2023-03-01T15:05:31;14.03;;;6.00;;
6282;SDS011;3174;53.486;9.568;2023-03-01T15:08:01;12.97;;;6.07;;
6282;SDS011;3174;53.486;9.568;2023-03-01T15:10:30;13.37;;;6.03;;
6282;SDS011;3174;53.486;9.568;2023-03-01T15:13:09;12.33;;;6.10;;
6282;SDS011;3174;53.486;9.568;2023-03-01T15:15:38;9.93;;;5.83;;
6282;SDS011;3174;53.486;9.568;2023-03-01T15:18:13;11.30;;;5.63;;
6282;SDS011;3174;53.486;9.568;2023-03-01T15:20:45;11.30;;;5.87;;
6282;SDS011;3174;53.486;9.568;2023-03-01T15:23:17;11.37;;;5.93;;
6282;SDS011;3174;53.486;9.568;2023-03-01T15:25:47;10.77;;;5.57;;
6282;SDS011;3174;53.486;9.568;2023-03-01T15:28:23;12.57;;;5.27;;
6282;SDS011;3174;53.486;9.568;2023-03-01T15:30:54;11.97;;;5.40;;
6282;SDS011;3174;53.486;9.568;2023-03-01T15:33:28;11.77;;;5.33;;
6282;SDS011;3174;53.486;9.568;2023-03-01T15:36:00;10.73;;;5.37;;
6282;SDS011;3174;53.486;9.568;2023-03-01T15:38:30;10.80;;;5.30;;
6282;SDS011;3174;53.486;9.568;2023-03-01T15:41:00;10.73;;;5.37;;
6282;SDS011;3174;53.486;9.568;2023-03-01T15:43:42;11.23;;;5.10;;
6282;SDS011;3174;53.486;9.568;2023-03-01T15:46:14;11.27;;;5.27;;
6282;SDS011;3174;53.486;9.568;2023-03-01T15:48:48;10.27;;;5.23;;
6282;SDS011;3174;53.486;9.568;2023-03-01T15:51:21;11.33;;;5.40;;
6282;SDS011;3174;53.486;9.568;2023-03-01T15:53:54;6.60;;;4.63;;
6282;SDS011;3174;53.486;9.568;2023-03-01T15:56:22;8.63;;;4.67;;
6282;SDS011;3174;53.486;9.568;2023-03-01T15:58:50;9.97;;;5.07;;
6282;SDS011;3174;53.486;9.568;2023-03-01T16:01:18;9.13;;;4.97;;
6282;SDS011;3174;53.486;9.568;2023-03-01T16:03:46;10.10;;;5.43;;
6282;SDS011;3174;53.486;9.568;2023-03-01T16:06:14;9.20;;;5.23;;
6282;SDS011;3174;53.486;9.568;2023-03-01T16:08:43;9.20;;;4.67;;